Terminal Aerodrome Forecast
Issued by NWS

Home | Current Version | Previous Version | Graphics & Text | Print | Product List | Glossary On
Versions: 1 2 3 4 5 6 7 8 9 10 11 12 13 14 15 16 17 18 19 20 21 22 23 24 25 26 27 28 29 30 31 32 33 34 35 36
000
FTUS43 KLOT 171138
TAFORD
TAF
KORD 171138Z 1712/1818 26006KT P6SM FEW050 FEW250
      TEMPO 1712/1714 6SM BR
     FM172000 09008KT P6SM SCT050
     FM180200 12004KT P6SM SCT060
     FM181000 36004KT P6SM SCT040 BKN080
     FM181400 04012KT P6SM SCT030 BKN050=

USA.gov is the U.S. government's official web portal to all federal, state and local government web resources and services.